sensor_id;sensor_type;location;lat;lon;timestamp;pressure;altitude;pressure_sealevel;temperature;humidity
30302;BME280;17111;52.130;5.028;2023-01-15T00:01:02;99861.00;;;16.60;56.42
30302;BME280;17111;52.130;5.028;2023-01-15T00:03:29;99863.69;;;16.60;55.84
30302;BME280;17111;52.130;5.028;2023-01-15T00:06:01;99867.38;;;16.59;55.83
30302;BME280;17111;52.130;5.028;2023-01-15T00:08:28;99862.84;;;16.60;56.26
30302;BME280;17111;52.130;5.028;2023-01-15T00:10:54;99855.66;;;16.60;56.74
30302;BME280;17111;52.130;5.028;2023-01-15T00:13:21;99853.00;;;16.60;56.24
30302;BME280;17111;52.130;5.028;2023-01-15T00:15:48;99861.19;;;16.59;55.73
30302;BME280;17111;52.130;5.028;2023-01-15T00:18:14;99855.84;;;16.59;56.70
30302;BME280;17111;52.130;5.028;2023-01-15T00:20:41;99855.00;;;16.58;56.45
30302;BME280;17111;52.130;5.028;2023-01-15T00:23:07;99855.00;;;16.58;55.89
30302;BME280;17111;52.130;5.028;2023-01-15T00:25:55;99842.66;;;16.57;55.89
30302;BME280;17111;52.130;5.028;2023-01-15T00:28:40;99848.00;;;16.57;56.49
30302;BME280;17111;52.130;5.028;2023-01-15T00:31:07;99843.63;;;16.56;56.12
30302;BME280;17111;52.130;5.028;2023-01-15T00:33:33;99843.63;;;16.56;56.36
30302;BME280;17111;52.130;5.028;2023-01-15T00:36:00;99846.31;;;16.56;56.03
30302;BME280;17111;52.130;5.028;2023-01-15T00:38:27;99850.00;;;16.55;56.22
30302;BME280;17111;52.130;5.028;2023-01-15T00:40:53;99851.00;;;16.54;55.81
30302;BME280;17111;52.130;5.028;2023-01-15T00:43:20;99845.66;;;16.54;55.71
30302;BME280;17111;52.130;5.028;2023-01-15T00:45:46;99842.97;;;16.54;55.78
30302;BME280;17111;52.130;5.028;2023-01-15T00:48:13;99826.09;;;16.53;56.69
30302;BME280;17111;52.130;5.028;2023-01-15T00:50:39;99846.66;;;16.53;56.74
30302;BME280;17111;52.130;5.028;2023-01-15T00:53:06;99849.34;;;16.53;56.66
30302;BME280;17111;52.130;5.028;2023-01-15T00:55:32;99848.66;;;16.51;56.26
30302;BME280;17111;52.130;5.028;2023-01-15T00:57:59;99845.97;;;16.51;55.97
30302;BME280;17111;52.130;5.028;2023-01-15T01:00:25;99847.81;;;16.50;55.46
30302;BME280;17111;52.130;5.028;2023-01-15T01:02:52;99854.19;;;16.49;56.12
30302;BME280;17111;52.130;5.028;2023-01-15T01:05:18;99847.00;;;16.50;56.32
30302;BME280;17111;52.130;5.028;2023-01-15T01:07:45;99866.56;;;16.50;55.76
30302;BME280;17111;52.130;5.028;2023-01-15T01:10:12;99849.84;;;16.48;56.01
30302;BME280;17111;52.130;5.028;2023-01-15T01:12:38;99856.03;;;16.49;55.59
30302;BME280;17111;52.130;5.028;2023-01-15T01:15:05;99868.41;;;16.50;55.91
30302;BME280;17111;52.130;5.028;2023-01-15T01:17:32;99864.88;;;16.49;55.28
30302;BME280;17111;52.130;5.028;2023-01-15T01:19:59;99871.06;;;16.50;56.24
30302;BME280;17111;52.130;5.028;2023-01-15T01:22:26;99873.75;;;16.50;55.51
30302;BME280;17111;52.130;5.028;2023-01-15T01:24:53;99861.38;;;16.49;56.02
30302;BME280;17111;52.130;5.028;2023-01-15T01:27:19;99863.03;;;16.50;56.43
30302;BME280;17111;52.130;5.028;2023-01-15T01:29:46;99874.56;;;16.50;56.19
30302;BME280;17111;52.130;5.028;2023-01-15T01:32:13;99854.19;;;16.49;55.50
30302;BME280;17111;52.130;5.028;2023-01-15T01:34:40;99861.38;;;16.49;55.62
30302;BME280;17111;52.130;5.028;2023-01-15T01:37:07;99870.38;;;16.48;56.01
30302;BME280;17111;52.130;5.028;2023-01-15T01:39:33;99865.03;;;16.48;55.62
30302;BME280;17111;52.130;5.028;2023-01-15T01:42:00;99868.72;;;16.47;55.25
30302;BME280;17111;52.130;5.028;2023-01-15T01:47:00;99864.38;;;16.46;56.13
30302;BME280;17111;52.130;5.028;2023-01-15T01:49:28;99865.41;;;16.45;55.90
30302;BME280;17111;52.130;5.028;2023-01-15T01:52:00;99876.09;;;16.45;55.62
30302;BME280;17111;52.130;5.028;2023-01-15T01:54:30;99868.06;;;16.45;55.83
30302;BME280;17111;52.130;5.028;2023-01-15T01:56:59;99871.72;;;16.44;55.67
30302;BME280;17111;52.130;5.028;2023-01-15T01:59:26;99876.25;;;16.43;55.38
30302;BME280;17111;52.130;5.028;2023-01-15T02:01:53;99872.72;;;16.43;55.47
30302;BME280;17111;52.130;5.028;2023-01-15T02:04:21;99863.03;;;16.42;55.12
30302;BME280;17111;52.130;5.028;2023-01-15T02:06:50;99869.22;;;16.42;55.03
30302;BME280;17111;52.130;5.028;2023-01-15T02:09:17;99869.41;;;16.41;55.55
30302;BME280;17111;52.130;5.028;2023-01-15T02:11:43;99861.38;;;16.41;55.29
30302;BME280;17111;52.130;5.028;2023-01-15T02:14:15;99862.34;;;16.40;55.05
30302;BME280;17111;52.130;5.028;2023-01-15T02:19:32;99860.69;;;16.39;54.95
30302;BME280;17111;52.130;5.028;2023-01-15T02:25:25;99842.66;;;16.41;55.13
30302;BME280;17111;52.130;5.028;2023-01-15T02:28:12;99846.66;;;16.37;55.61
30302;BME280;17111;52.130;5.028;2023-01-15T02:30:44;99843.81;;;16.38;55.55
30302;BME280;17111;52.130;5.028;2023-01-15T02:33:14;99847.31;;;16.39;55.47
30302;BME280;17111;52.130;5.028;2023-01-15T02:35:47;99853.69;;;16.38;55.04
30302;BME280;17111;52.130;5.028;2023-01-15T02:38:20;99841.97;;;16.39;55.61
30302;BME280;17111;52.130;5.028;2023-01-15T02:40:49;99856.34;;;16.38;55.45
30302;BME280;17111;52.130;5.028;2023-01-15T02:43:18;99850.00;;;16.39;56.02
30302;BME280;17111;52.130;5.028;2023-01-15T02:45:49;99861.72;;;16.38;55.22
30302;BME280;17111;52.130;5.028;2023-01-15T02:48:19;99855.34;;;16.39;55.64
30302;BME280;17111;52.130;5.028;2023-01-15T02:50:53;99848.34;;;16.38;56.12
30302;BME280;17111;52.130;5.028;2023-01-15T02:53:25;99847.50;;;16.37;55.15
30302;BME280;17111;52.130;5.028;2023-01-15T02:55:56;99842.16;;;16.37;55.23
30302;BME280;17111;52.130;5.028;2023-01-15T02:58:28;99836.81;;;16.37;55.55
30302;BME280;17111;52.130;5.028;2023-01-15T03:00:59;99835.16;;;16.36;55.11
30302;BME280;17111;52.130;5.028;2023-01-15T03:06:28;99841.47;;;16.35;55.97
30302;BME280;17111;52.130;5.028;2023-01-15T03:08:55;99844.97;;;16.36;55.88
30302;BME280;17111;52.130;5.028;2023-01-15T03:11:22;99846.00;;;16.35;55.48
30302;BME280;17111;52.130;5.028;2023-01-15T03:13:59;99844.31;;;16.34;55.03
30302;BME280;17111;52.130;5.028;2023-01-15T03:16:51;99849.81;;;16.32;55.24
30302;BME280;17111;52.130;5.028;2023-01-15T03:19:30;99840.00;;;16.33;54.95
30302;BME280;17111;52.130;5.028;2023-01-15T03:27:09;99836.44;;;16.32;55.61
30302;BME280;17111;52.130;5.028;2023-01-15T03:29:39;99826.63;;;16.33;55.00
30302;BME280;17111;52.130;5.028;2023-01-15T03:32:07;99838.28;;;16.32;55.51
30302;BME280;17111;52.130;5.028;2023-01-15T03:34:51;99827.94;;;16.28;55.69
30302;BME280;17111;52.130;5.028;2023-01-15T03:37:20;99830.44;;;16.30;55.43
30302;BME280;17111;52.130;5.028;2023-01-15T03:39:48;99832.28;;;16.29;55.92
30302;BME280;17111;52.130;5.028;2023-01-15T03:45:41;99840.31;;;16.29;55.78
30302;BME280;17111;52.130;5.028;2023-01-15T03:51:10;99833.31;;;16.28;55.40
30302;BME280;17111;52.130;5.028;2023-01-15T03:53:49;99836.81;;;16.29;56.10
30302;BME280;17111;52.130;5.028;2023-01-15T03:56:28;99816.41;;;16.28;56.03
30302;BME280;17111;52.130;5.028;2023-01-15T04:02:00;99819.94;;;16.28;56.24
30302;BME280;17111;52.130;5.028;2023-01-15T04:04:27;99817.25;;;16.28;55.90
30302;BME280;17111;52.130;5.028;2023-01-15T04:06:55;99827.94;;;16.28;56.24
30302;BME280;17111;52.130;5.028;2023-01-15T04:09:22;99833.31;;;16.28;56.25
30302;BME280;17111;52.130;5.028;2023-01-15T04:11:49;99835.97;;;16.28;55.43
30302;BME280;17111;52.130;5.028;2023-01-15T04:14:16;99830.78;;;16.27;55.67
30302;BME280;17111;52.130;5.028;2023-01-15T04:16:43;99822.75;;;16.27;56.11
30302;BME280;17111;52.130;5.028;2023-01-15T04:19:09;99832.63;;;16.26;56.08
30302;BME280;17111;52.130;5.028;2023-01-15T04:21:36;99830.78;;;16.27;56.46
30302;BME280;17111;52.130;5.028;2023-01-15T04:24:02;99815.75;;;16.26;55.94
30302;BME280;17111;52.130;5.028;2023-01-15T04:26:29;99816.56;;;16.26;55.82
30302;BME280;17111;52.130;5.028;2023-01-15T04:28:56;99829.13;;;16.26;55.98
30302;BME280;17111;52.130;5.028;2023-01-15T04:31:22;99829.13;;;16.26;56.29
30302;BME280;17111;52.130;5.028;2023-01-15T04:33:49;99837.13;;;16.26;56.41
30302;BME280;17111;52.130;5.028;2023-01-15T04:36:15;99822.09;;;16.25;55.79
30302;BME280;17111;52.130;5.028;2023-01-15T04:38:42;99812.25;;;16.25;56.05
30302;BME280;17111;52.130;5.028;2023-01-15T04:41:09;99813.25;;;16.24;56.09
30302;BME280;17111;52.130;5.028;2023-01-15T04:43:55;99819.56;;;16.23;55.87
30302;BME280;17111;52.130;5.028;2023-01-15T04:46:40;99831.09;;;16.24;55.98
30302;BME280;17111;52.130;5.028;2023-01-15T04:49:10;99833.78;;;16.24;55.62
30302;BME280;17111;52.130;5.028;2023-01-15T04:51:37;99832.94;;;16.23;55.26
30302;BME280;17111;52.130;5.028;2023-01-15T04:54:07;99828.59;;;16.22;56.07
30302;BME280;17111;52.130;5.028;2023-01-15T04:56:43;99826.94;;;16.21;55.39
30302;BME280;17111;52.130;5.028;2023-01-15T04:59:11;99833.13;;;16.22;55.75
30302;BME280;17111;52.130;5.028;2023-01-15T05:01:38;99829.63;;;16.21;55.81
30302;BME280;17111;52.130;5.028;2023-01-15T05:04:06;99837.63;;;16.21;55.69
30302;BME280;17111;52.130;5.028;2023-01-15T05:06:33;99821.59;;;16.21;55.49
30302;BME280;17111;52.130;5.028;2023-01-15T05:09:00;99829.63;;;16.21;55.99
30302;BME280;17111;52.130;5.028;2023-01-15T05:11:27;99820.75;;;16.21;55.67
30302;BME280;17111;52.130;5.028;2023-01-15T05:13:54;99822.44;;;16.22;56.46
30302;BME280;17111;52.130;5.028;2023-01-15T05:16:24;99817.06;;;16.22;56.22
30302;BME280;17111;52.130;5.028;2023-01-15T05:18:53;99812.56;;;16.22;56.22
30302;BME280;17111;52.130;5.028;2023-01-15T05:21:24;99810.91;;;16.21;56.17
30302;BME280;17111;52.130;5.028;2023-01-15T05:23:53;99822.44;;;16.22;55.72
30302;BME280;17111;52.130;5.028;2023-01-15T05:26:21;99821.41;;;16.23;56.42
30302;BME280;17111;52.130;5.028;2023-01-15T05:28:48;99824.09;;;16.23;55.99
30302;BME280;17111;52.130;5.028;2023-01-15T05:31:18;99821.59;;;16.21;55.57
30302;BME280;17111;52.130;5.028;2023-01-15T05:33:46;99812.56;;;16.22;56.41
30302;BME280;17111;52.130;5.028;2023-01-15T05:36:17;99816.25;;;16.21;55.28
30302;BME280;17111;52.130;5.028;2023-01-15T05:38:44;99807.41;;;16.21;55.97
30302;BME280;17111;52.130;5.028;2023-01-15T05:41:13;99817.25;;;16.20;56.45
30302;BME280;17111;52.130;5.028;2023-01-15T05:44:00;99804.72;;;16.21;55.33
30302;BME280;17111;52.130;5.028;2023-01-15T05:46:28;99808.38;;;16.20;56.02
30302;BME280;17111;52.130;5.028;2023-01-15T05:49:01;99819.06;;;16.20;55.41
30302;BME280;17111;52.130;5.028;2023-01-15T05:51:28;99811.22;;;16.18;56.25
30302;BME280;17111;52.130;5.028;2023-01-15T05:53:57;99814.59;;;16.20;56.51
30302;BME280;17111;52.130;5.028;2023-01-15T05:56:24;99819.94;;;16.20;55.82
30302;BME280;17111;52.130;5.028;2023-01-15T05:58:51;99820.91;;;16.19;56.15
30302;BME280;17111;52.130;5.028;2023-01-15T06:01:18;99818.41;;;16.18;55.61
30302;BME280;17111;52.130;5.028;2023-01-15T06:03:45;99810.41;;;16.18;55.66
30302;BME280;17111;52.130;5.028;2023-01-15T06:06:15;99825.59;;;16.17;55.91
30302;BME280;17111;52.130;5.028;2023-01-15T06:08:43;99818.59;;;16.16;56.39
30302;BME280;17111;52.130;5.028;2023-01-15T06:11:10;99812.38;;;16.16;56.16
30302;BME280;17111;52.130;5.028;2023-01-15T06:13:37;99825.94;;;16.14;56.10
30302;BME280;17111;52.130;5.028;2023-01-15T06:16:07;99828.59;;;16.14;56.17
30302;BME280;17111;52.130;5.028;2023-01-15T06:18:37;99825.09;;;16.14;55.76
30302;BME280;17111;52.130;5.028;2023-01-15T06:21:05;99832.44;;;16.12;55.99
30302;BME280;17111;52.130;5.028;2023-01-15T06:23:32;99837.78;;;16.12;56.16
30302;BME280;17111;52.130;5.028;2023-01-15T06:26:03;99847.63;;;16.11;56.23
30302;BME280;17111;52.130;5.028;2023-01-15T06:28:30;99850.31;;;16.11;56.20
30302;BME280;17111;52.130;5.028;2023-01-15T06:30:57;99849.66;;;16.09;56.16
30302;BME280;17111;52.130;5.028;2023-01-15T06:33:24;99851.50;;;16.09;56.33
30302;BME280;17111;52.130;5.028;2023-01-15T06:35:51;99843.47;;;16.09;55.53
30302;BME280;17111;52.130;5.028;2023-01-15T06:38:18;99848.81;;;16.09;56.30
30302;BME280;17111;52.130;5.028;2023-01-15T06:40:45;99848.00;;;16.08;55.23
30302;BME280;17111;52.130;5.028;2023-01-15T06:43:11;99831.09;;;16.08;55.42
30302;BME280;17111;52.130;5.028;2023-01-15T06:45:57;99846.28;;;16.07;55.58
30302;BME280;17111;52.130;5.028;2023-01-15T06:48:43;99828.41;;;16.08;56.42
30302;BME280;17111;52.130;5.028;2023-01-15T06:51:09;99824.91;;;16.07;55.67
30302;BME280;17111;52.130;5.028;2023-01-15T06:53:38;99836.44;;;16.08;55.28
30302;BME280;17111;52.130;5.028;2023-01-15T06:56:05;99828.59;;;16.06;56.00
30302;BME280;17111;52.130;5.028;2023-01-15T06:58:31;99832.09;;;16.07;56.15
30302;BME280;17111;52.130;5.028;2023-01-15T07:00:58;99841.13;;;16.06;55.79
30302;BME280;17111;52.130;5.028;2023-01-15T07:03:25;99834.78;;;16.07;56.44
30302;BME280;17111;52.130;5.028;2023-01-15T07:05:52;99822.41;;;16.06;55.64
30302;BME280;17111;52.130;5.028;2023-01-15T07:08:18;99823.25;;;16.06;55.87
30302;BME280;17111;52.130;5.028;2023-01-15T07:10:45;99829.59;;;16.05;55.46
30302;BME280;17111;52.130;5.028;2023-01-15T07:13:11;99825.28;;;16.04;56.02
30302;BME280;17111;52.130;5.028;2023-01-15T07:15:38;99825.28;;;16.04;55.76
30302;BME280;17111;52.130;5.028;2023-01-15T07:18:05;99825.41;;;16.02;55.28
30302;BME280;17111;52.130;5.028;2023-01-15T07:20:32;99820.06;;;16.02;55.19
30302;BME280;17111;52.130;5.028;2023-01-15T07:22:58;99829.09;;;16.01;56.09
30302;BME280;17111;52.130;5.028;2023-01-15T07:25:25;99821.41;;;15.98;56.03
30302;BME280;17111;52.130;5.028;2023-01-15T07:27:51;99824.91;;;15.99;55.10
30302;BME280;17111;52.130;5.028;2023-01-15T07:30:18;99814.41;;;15.97;56.01
30302;BME280;17111;52.130;5.028;2023-01-15T07:32:45;99817.22;;;15.96;55.91
30302;BME280;17111;52.130;5.028;2023-01-15T07:35:11;99817.22;;;15.96;56.02
30302;BME280;17111;52.130;5.028;2023-01-15T07:37:38;99804.84;;;15.95;55.61
30302;BME280;17111;52.130;5.028;2023-01-15T07:40:05;99812.88;;;15.95;54.97
30302;BME280;17111;52.130;5.028;2023-01-15T07:42:32;99813.88;;;15.94;55.21
30302;BME280;17111;52.130;5.028;2023-01-15T07:45:17;99812.88;;;15.95;55.58
30302;BME280;17111;52.130;5.028;2023-01-15T07:48:02;99808.72;;;15.92;54.68
30302;BME280;17111;52.130;5.028;2023-01-15T07:50:47;99801.84;;;15.90;55.54
30302;BME280;17111;52.130;5.028;2023-01-15T07:53:13;99790.16;;;15.91;55.63
30302;BME280;17111;52.130;5.028;2023-01-15T07:55:40;99800.00;;;15.90;55.46
30302;BME280;17111;52.130;5.028;2023-01-15T07:58:07;99804.53;;;15.90;55.23
30302;BME280;17111;52.130;5.028;2023-01-15T08:00:33;99805.53;;;15.89;54.34
30302;BME280;17111;52.130;5.028;2023-01-15T08:03:00;99802.88;;;15.89;54.65
30302;BME280;17111;52.130;5.028;2023-01-15T08:05:28;99806.38;;;15.89;55.09
30302;BME280;17111;52.130;5.028;2023-01-15T08:07:55;99811.84;;;15.88;54.57
30302;BME280;17111;52.130;5.028;2023-01-15T08:10:21;99808.22;;;15.89;54.23
30302;BME280;17111;52.130;5.028;2023-01-15T08:12:50;99811.72;;;15.89;54.69
30302;BME280;17111;52.130;5.028;2023-01-15T08:15:39;99814.53;;;15.88;55.26
30302;BME280;17111;52.130;5.028;2023-01-15T08:18:08;99820.75;;;15.88;54.19
30302;BME280;17111;52.130;5.028;2023-01-15T08:20:34;99818.06;;;15.88;54.41
30302;BME280;17111;52.130;5.028;2023-01-15T08:23:02;99818.91;;;15.89;54.32
30302;BME280;17111;52.130;5.028;2023-01-15T08:25:29;99819.72;;;15.89;54.46
30302;BME280;17111;52.130;5.028;2023-01-15T08:27:59;99817.06;;;15.89;54.92
30302;BME280;17111;52.130;5.028;2023-01-15T08:30:27;99825.72;;;15.91;54.71
30302;BME280;17111;52.130;5.028;2023-01-15T08:32:58;99818.53;;;15.92;54.84
30302;BME280;17111;52.130;5.028;2023-01-15T08:35:25;99807.72;;;15.93;55.51
30302;BME280;17111;52.130;5.028;2023-01-15T08:37:51;99804.84;;;15.95;55.01
30302;BME280;17111;52.130;5.028;2023-01-15T08:40:18;99800.53;;;15.94;54.71
30302;BME280;17111;52.130;5.028;2023-01-15T08:42:44;99796.69;;;15.96;54.28
30302;BME280;17111;52.130;5.028;2023-01-15T08:45:11;99802.03;;;15.96;53.71
30302;BME280;17111;52.130;5.028;2023-01-15T08:47:38;99798.34;;;15.97;53.73
30302;BME280;17111;52.130;5.028;2023-01-15T08:50:05;99809.06;;;15.97;53.92
30302;BME280;17111;52.130;5.028;2023-01-15T08:52:34;99812.56;;;15.98;53.42
30302;BME280;17111;52.130;5.028;2023-01-15T08:55:00;99807.72;;;16.01;54.56
30302;BME280;17111;52.130;5.028;2023-01-15T08:57:27;99821.72;;;16.03;53.90
30302;BME280;17111;52.130;5.028;2023-01-15T08:59:54;99818.75;;;16.07;53.94
30302;BME280;17111;52.130;5.028;2023-01-15T09:02:20;99813.06;;;16.10;53.57
30302;BME280;17111;52.130;5.028;2023-01-15T09:04:47;99805.69;;;16.12;53.88
30302;BME280;17111;52.130;5.028;2023-01-15T09:07:13;99813.72;;;16.12;52.78
30302;BME280;17111;52.130;5.028;2023-01-15T09:09:40;99822.59;;;16.12;53.78
30302;BME280;17111;52.130;5.028;2023-01-15T09:12:06;99819.94;;;16.12;53.10
30302;BME280;17111;52.130;5.028;2023-01-15T09:14:34;99830.63;;;16.12;52.80
30302;BME280;17111;52.130;5.028;2023-01-15T09:17:20;99822.59;;;16.12;52.78
30302;BME280;17111;52.130;5.028;2023-01-15T09:19:47;99840.44;;;16.12;53.80
30302;BME280;17111;52.130;5.028;2023-01-15T09:22:14;99829.94;;;16.10;52.94
30302;BME280;17111;52.130;5.028;2023-01-15T09:24:40;99833.63;;;16.09;52.75
30302;BME280;17111;52.130;5.028;2023-01-15T09:27:10;99834.63;;;16.08;53.13
30302;BME280;17111;52.130;5.028;2023-01-15T09:29:37;99828.41;;;16.08;53.55
30302;BME280;17111;52.130;5.028;2023-01-15T09:32:03;99830.25;;;16.07;53.55
30302;BME280;17111;52.130;5.028;2023-01-15T09:34:30;99827.75;;;16.06;52.86
30302;BME280;17111;52.130;5.028;2023-01-15T09:36:56;99824.25;;;16.05;52.62
30302;BME280;17111;52.130;5.028;2023-01-15T09:39:23;99828.78;;;16.04;53.42
30302;BME280;17111;52.130;5.028;2023-01-15T09:47:53;99825.28;;;16.04;53.29
30302;BME280;17111;52.130;5.028;2023-01-15T09:55:43;99827.06;;;16.03;53.98
30302;BME280;17111;52.130;5.028;2023-01-15T09:58:12;99811.91;;;16.04;53.59
30302;BME280;17111;52.130;5.028;2023-01-15T10:00:44;99802.03;;;16.04;54.23
30302;BME280;17111;52.130;5.028;2023-01-15T10:03:44;99817.25;;;16.04;53.46
30302;BME280;17111;52.130;5.028;2023-01-15T10:06:39;99813.72;;;16.03;53.78
30302;BME280;17111;52.130;5.028;2023-01-15T10:09:33;99819.94;;;16.04;53.63
30302;BME280;17111;52.130;5.028;2023-01-15T10:12:14;99829.44;;;16.07;53.33
30302;BME280;17111;52.130;5.028;2023-01-15T10:15:05;99833.75;;;16.08;53.40
30302;BME280;17111;52.130;5.028;2023-01-15T10:17:46;99843.31;;;16.10;54.43
30302;BME280;17111;52.130;5.028;2023-01-15T10:24:43;99848.00;;;16.16;53.19
30302;BME280;17111;52.130;5.028;2023-01-15T10:26:38;99850.16;;;16.21;53.10
30302;BME280;17111;52.130;5.028;2023-01-15T10:32:21;99838.97;;;16.25;52.02
30302;BME280;17111;52.130;5.028;2023-01-15T10:43:22;99853.69;;;16.29;52.72
30302;BME280;17111;52.130;5.028;2023-01-15T10:45:58;99851.00;;;16.29;51.98
30302;BME280;17111;52.130;5.028;2023-01-15T10:48:43;99859.19;;;16.28;51.59
30302;BME280;17111;52.130;5.028;2023-01-15T10:51:27;99858.34;;;16.27;52.18
30302;BME280;17111;52.130;5.028;2023-01-15T10:54:00;99862.34;;;16.23;52.53
30302;BME280;17111;52.130;5.028;2023-01-15T11:01:59;99850.00;;;16.22;52.58
30302;BME280;17111;52.130;5.028;2023-01-15T11:04:30;99848.34;;;16.21;52.19
30302;BME280;17111;52.130;5.028;2023-01-15T11:06:57;99839.63;;;16.19;52.01
30302;BME280;17111;52.130;5.028;2023-01-15T11:09:26;99828.94;;;16.19;52.26
30302;BME280;17111;52.130;5.028;2023-01-15T11:12:04;99857.69;;;16.17;52.50
30302;BME280;17111;52.130;5.028;2023-01-15T11:14:44;99859.16;;;16.20;51.76
30302;BME280;17111;52.130;5.028;2023-01-15T11:17:35;99860.19;;;16.19;52.54
30302;BME280;17111;52.130;5.028;2023-01-15T11:20:26;99857.50;;;16.19;52.39
30302;BME280;17111;52.130;5.028;2023-01-15T11:22:56;99865.53;;;16.19;52.95
30302;BME280;17111;52.130;5.028;2023-01-15T11:25:30;99856.69;;;16.18;52.62
30302;BME280;17111;52.130;5.028;2023-01-15T11:28:03;99861.00;;;16.19;52.95
30302;BME280;17111;52.130;5.028;2023-01-15T11:30:33;99847.66;;;16.19;52.63
30302;BME280;17111;52.130;5.028;2023-01-15T11:33:01;99851.16;;;16.20;52.85
30302;BME280;17111;52.130;5.028;2023-01-15T11:35:33;99852.84;;;16.21;53.01
30302;BME280;17111;52.130;5.028;2023-01-15T11:38:05;99843.13;;;16.20;52.52
30302;BME280;17111;52.130;5.028;2023-01-15T11:40:32;99851.00;;;16.21;53.11
30302;BME280;17111;52.130;5.028;2023-01-15T11:42:58;99844.81;;;16.21;52.68
30302;BME280;17111;52.130;5.028;2023-01-15T11:45:51;99840.13;;;16.23;52.51
30302;BME280;17111;52.130;5.028;2023-01-15T11:48:44;99841.97;;;16.22;52.78
30302;BME280;17111;52.130;5.028;2023-01-15T11:51:35;99846.31;;;16.23;52.11
30302;BME280;17111;52.130;5.028;2023-01-15T11:54:11;99840.00;;;16.24;52.69
30302;BME280;17111;52.130;5.028;2023-01-15T11:56:42;99850.69;;;16.24;52.79
30302;BME280;17111;52.130;5.028;2023-01-15T11:59:12;99843.50;;;16.25;52.96
30302;BME280;17111;52.130;5.028;2023-01-15T12:01:51;99840.13;;;16.23;52.72
30302;BME280;17111;52.130;5.028;2023-01-15T12:04:33;99845.47;;;16.23;52.95
30302;BME280;17111;52.130;5.028;2023-01-15T12:07:03;99839.31;;;16.22;51.85
30302;BME280;17111;52.130;5.028;2023-01-15T12:26:22;99854.69;;;16.12;52.56
30302;BME280;17111;52.130;5.028;2023-01-15T12:31:50;99860.34;;;16.09;53.09
30302;BME280;17111;52.130;5.028;2023-01-15T12:34:54;99858.84;;;16.07;53.38
30302;BME280;17111;52.130;5.028;2023-01-15T12:37:26;99848.00;;;16.08;52.87
30302;BME280;17111;52.130;5.028;2023-01-15T12:39:58;99848.97;;;16.07;53.17
30302;BME280;17111;52.130;5.028;2023-01-15T12:42:29;99840.94;;;16.07;52.74
30302;BME280;17111;52.130;5.028;2023-01-15T12:45:19;99848.13;;;16.07;53.14
30302;BME280;17111;52.130;5.028;2023-01-15T12:47:55;99836.63;;;16.06;53.33
30302;BME280;17111;52.130;5.028;2023-01-15T12:50:41;99843.81;;;16.06;52.79
30302;BME280;17111;52.130;5.028;2023-01-15T12:56:11;99860.00;;;16.04;52.94
30302;BME280;17111;52.130;5.028;2023-01-15T12:58:47;99863.34;;;16.06;52.42
30302;BME280;17111;52.130;5.028;2023-01-15T13:04:20;99840.94;;;16.07;53.15
30302;BME280;17111;52.130;5.028;2023-01-15T13:06:47;99846.97;;;16.09;53.57
30302;BME280;17111;52.130;5.028;2023-01-15T13:11:57;99841.97;;;16.14;53.54
30302;BME280;17111;52.130;5.028;2023-01-15T13:14:24;99849.66;;;16.17;53.32
30302;BME280;17111;52.130;5.028;2023-01-15T13:17:01;99830.78;;;16.19;53.27
30302;BME280;17111;52.130;5.028;2023-01-15T13:22:04;99840.97;;;16.23;52.93
30302;BME280;17111;52.130;5.028;2023-01-15T13:31:01;99845.81;;;16.28;52.65
30302;BME280;17111;52.130;5.028;2023-01-15T13:33:43;99865.38;;;16.28;52.45
30302;BME280;17111;52.130;5.028;2023-01-15T13:36:25;99867.06;;;16.29;52.92
30302;BME280;17111;52.130;5.028;2023-01-15T13:38:54;99867.88;;;16.30;52.83
30302;BME280;17111;52.130;5.028;2023-01-15T13:41:28;99881.06;;;16.32;52.70
30302;BME280;17111;52.130;5.028;2023-01-15T13:44:17;99869.53;;;16.31;53.07
30302;BME280;17111;52.130;5.028;2023-01-15T13:46:47;99879.09;;;16.34;52.90
30302;BME280;17111;52.130;5.028;2023-01-15T13:49:17;99867.56;;;16.33;53.52
30302;BME280;17111;52.130;5.028;2023-01-15T13:51:47;99857.69;;;16.34;53.80
30302;BME280;17111;52.130;5.028;2023-01-15T13:54:17;99860.19;;;16.35;52.95
30302;BME280;17111;52.130;5.028;2023-01-15T13:56:46;99865.53;;;16.35;52.67
30302;BME280;17111;52.130;5.028;2023-01-15T13:59:39;99873.75;;;16.34;54.01
30302;BME280;17111;52.130;5.028;2023-01-15T14:02:26;99870.06;;;16.35;53.71
30302;BME280;17111;52.130;5.028;2023-01-15T14:04:53;99876.91;;;16.37;54.11
30302;BME280;17111;52.130;5.028;2023-01-15T14:07:30;99880.44;;;16.38;53.46
30302;BME280;17111;52.130;5.028;2023-01-15T14:21:12;99892.78;;;16.39;52.94
30302;BME280;17111;52.130;5.028;2023-01-15T14:23:48;99896.28;;;16.39;53.62
30302;BME280;17111;52.130;5.028;2023-01-15T14:31:57;99917.88;;;16.38;53.97
30302;BME280;17111;52.130;5.028;2023-01-15T14:34:28;99927.72;;;16.37;53.36
30302;BME280;17111;52.130;5.028;2023-01-15T14:39:33;99917.34;;;16.34;53.65
30302;BME280;17111;52.130;5.028;2023-01-15T14:42:15;99918.19;;;16.35;53.08
30302;BME280;17111;52.130;5.028;2023-01-15T14:45:17;99919.03;;;16.35;54.07
30302;BME280;17111;52.130;5.028;2023-01-15T14:47:45;99936.06;;;16.34;53.31
30302;BME280;17111;52.130;5.028;2023-01-15T14:50:36;99933.56;;;16.33;53.53
30302;BME280;17111;52.130;5.028;2023-01-15T14:55:56;99927.38;;;16.32;53.78
30302;BME280;17111;52.130;5.028;2023-01-15T14:58:44;99930.03;;;16.32;53.54
30302;BME280;17111;52.130;5.028;2023-01-15T15:01:35;99946.94;;;16.33;54.48
30302;BME280;17111;52.130;5.028;2023-01-15T15:04:35;99939.06;;;16.31;53.57
30302;BME280;17111;52.130;5.028;2023-01-15T15:07:12;99945.25;;;16.32;53.67
30302;BME280;17111;52.130;5.028;2023-01-15T15:09:45;99933.56;;;16.33;54.56
30302;BME280;17111;52.130;5.028;2023-01-15T15:20:43;99936.41;;;16.31;53.64
30302;BME280;17111;52.130;5.028;2023-01-15T15:26:17;99940.25;;;16.28;53.94
30302;BME280;17111;52.130;5.028;2023-01-15T15:29:05;99950.25;;;16.26;54.34
30302;BME280;17111;52.130;5.028;2023-01-15T15:31:52;99943.91;;;16.27;53.86